KALX/ALX METAR and TAF weather

Enter ICAO airport designator
Station Type Date Time Source
KALX METAR 2022/11/30 10:55 UTC NOAA

KALX 301055Z AUTO 00000KT 5SM TSRA BKN008 OVC014 17/16 A2996 RMK AO2 LTG DSNT ALQDS P0020 T01650163


Station Type Date Time Source
KALX Decoded METAR 2022/11/30 10:55 UTC NOAA

Alexander City, Thomas C Russell Field Airport, AL, United States (KALX) 32-54-53N 085-57-46W
Nov 30, 2022 - 05:55 AM EST / 2022.11.30 1055 UTC
Wind: Calm:0
Visibility: 5 mile(s):0
Sky conditions: overcast
Weather: rain with thunder; Lightning observed
Precipitation last hour: 0.20 inches
Temperature: 61.7 F (16.5 C)
Dew Point: 61.3 F (16.3 C)
Relative Humidity: 98%
Pressure (altimeter): 29.96 in. Hg (1014 hPa)
ob: KALX 301055Z AUTO 00000KT 5SM TSRA BKN008 OVC014 17/16 A2996 RMK AO2 LTG DSNT ALQDS P0020 T01650163
cycle: 11

Station Type Date Time Source
KALX TAF UTC NOAA

Error!

Example: see airport list